createdAt,value
2019-03-17T00:00:32.573Z,88.30
2019-03-17T00:01:15.674Z,88.40
2019-03-17T00:01:57.209Z,88.40
2019-03-17T00:02:29.715Z,88.40
2019-03-17T00:03:05.292Z,88.40
2019-03-17T00:03:41.102Z,88.40
2019-03-17T00:04:16.915Z,88.40
2019-03-17T00:04:52.820Z,88.10
2019-03-17T00:05:28.398Z,88.30
2019-03-17T00:06:04.292Z,87.80
2019-03-17T00:06:39.839Z,87.50
2019-03-17T00:07:15.641Z,87.50
2019-03-17T00:07:51.243Z,87.50
2019-03-17T00:08:26.799Z,87.60
2019-03-17T00:09:02.582Z,87.70
2019-03-17T00:09:39.410Z,87.70
2019-03-17T00:10:15.421Z,87.70
2019-03-17T00:10:52.610Z,87.80
2019-03-17T00:11:28.470Z,87.90
2019-03-17T00:12:04.343Z,87.50
2019-03-17T00:12:39.955Z,87.60
2019-03-17T00:13:17.774Z,87.80
2019-03-17T00:13:53.509Z,87.90
2019-03-17T00:14:30.121Z,87.60
2019-03-17T00:15:06.495Z,87.50
2019-03-17T00:15:43.266Z,88.30
2019-03-17T00:16:18.815Z,87.50
2019-03-17T00:16:54.453Z,87.40
2019-03-17T00:17:30.022Z,87.50
2019-03-17T00:18:05.580Z,87.60
2019-03-17T00:18:41.203Z,87.60
2019-03-17T00:19:16.755Z,87.70
2019-03-17T00:19:52.461Z,87.60
2019-03-17T00:20:28.049Z,87.80
2019-03-17T00:21:03.682Z,87.80
2019-03-17T00:21:39.335Z,87.70
2019-03-17T00:22:15.123Z,87.80
2019-03-17T00:22:50.692Z,87.50
2019-03-17T00:23:26.247Z,87.50
2019-03-17T00:24:01.795Z,87.50
2019-03-17T00:24:37.381Z,87.20
2019-03-17T00:25:13.233Z,87.40
2019-03-17T00:25:49.082Z,87.40
2019-03-17T00:26:24.613Z,87.20
2019-03-17T00:27:00.187Z,87.10
2019-03-17T00:27:35.735Z,87.20
2019-03-17T00:28:11.307Z,87.00
2019-03-17T00:28:47.108Z,87.20
2019-03-17T00:29:23.154Z,87.00
2019-03-17T00:29:58.715Z,86.90
2019-03-17T00:30:34.518Z,86.80
2019-03-17T00:31:10.062Z,86.70
2019-03-17T00:31:48.043Z,86.50
2019-03-17T00:32:23.873Z,86.70
2019-03-17T00:32:59.512Z,86.30
2019-03-17T00:33:36.549Z,86.40
2019-03-17T00:34:12.543Z,86.50
2019-03-17T00:34:50.758Z,86.40
2019-03-17T00:35:25.361Z,86.30
2019-03-17T00:36:00.944Z,86.50
2019-03-17T00:36:36.755Z,86.70
2019-03-17T00:37:12.899Z,86.60
2019-03-17T00:37:48.435Z,86.50
2019-03-17T00:38:23.987Z,86.70
2019-03-17T00:38:59.583Z,87.00
2019-03-17T00:39:35.111Z,86.60
2019-03-17T00:40:10.647Z,86.60
2019-03-17T00:40:46.295Z,87.10
2019-03-17T00:41:21.843Z,87.00
2019-03-17T00:41:57.375Z,87.10
2019-03-17T00:42:32.919Z,87.10
2019-03-17T00:43:08.560Z,86.90
2019-03-17T00:43:44.129Z,87.00
2019-03-17T00:44:21.126Z,87.20
2019-03-17T00:44:56.662Z,87.30
2019-03-17T00:45:32.467Z,87.10
2019-03-17T00:46:08.022Z,87.10
2019-03-17T00:46:43.619Z,86.90
2019-03-17T00:47:19.155Z,86.60
2019-03-17T00:47:55.032Z,86.50
2019-03-17T00:48:30.572Z,86.70
2019-03-17T00:49:06.142Z,86.70
2019-03-17T00:49:42.039Z,87.60
2019-03-17T00:50:17.591Z,86.50
2019-03-17T00:50:53.147Z,86.70
2019-03-17T00:51:28.688Z,86.60
2019-03-17T00:52:05.238Z,86.70
2019-03-17T00:52:40.789Z,86.70
2019-03-17T00:53:16.331Z,86.80
2019-03-17T00:53:52.313Z,86.90
2019-03-17T00:54:28.154Z,87.00
2019-03-17T00:55:03.727Z,86.80
2019-03-17T00:55:39.594Z,86.70
2019-03-17T00:56:15.135Z,86.80
2019-03-17T00:56:50.706Z,86.60
2019-03-17T00:57:26.277Z,86.60
2019-03-17T00:58:02.006Z,86.50
2019-03-17T00:58:37.546Z,86.40
2019-03-17T00:59:13.154Z,86.30
2019-03-17T00:59:48.695Z,86.40
2019-03-17T01:00:24.232Z,86.50
2019-03-17T01:00:59.848Z,86.60
2019-03-17T01:01:35.407Z,86.70
2019-03-17T01:02:10.964Z,86.70
2019-03-17T01:02:46.530Z,86.70
2019-03-17T01:03:22.399Z,86.80
2019-03-17T01:03:58.122Z,87.00
2019-03-17T01:04:33.979Z,87.10
2019-03-17T01:05:10.484Z,87.30
2019-03-17T01:05:46.105Z,87.40
2019-03-17T01:06:21.660Z,87.40
2019-03-17T01:06:57.205Z,87.00
2019-03-17T01:07:32.742Z,86.70
2019-03-17T01:08:08.532Z,86.70
2019-03-17T01:08:44.066Z,86.70
2019-03-17T01:09:19.603Z,86.70
2019-03-17T01:09:55.138Z,86.50
2019-03-17T01:10:30.688Z,86.50
2019-03-17T01:11:06.273Z,86.50
2019-03-17T01:11:41.849Z,86.50
2019-03-17T01:12:17.384Z,86.60
2019-03-17T01:12:52.926Z,86.40
2019-03-17T01:13:28.711Z,86.40
2019-03-17T01:14:04.266Z,86.40
2019-03-17T01:14:40.774Z,86.00
2019-03-17T01:15:16.315Z,85.90
2019-03-17T01:15:51.855Z,85.80
2019-03-17T01:16:28.487Z,86.10
2019-03-17T01:17:04.057Z,86.00
2019-03-17T01:17:40.006Z,85.90
2019-03-17T01:18:15.543Z,86.00
2019-03-17T01:18:51.091Z,85.90
2019-03-17T01:19:26.651Z,85.80
2019-03-17T01:20:02.218Z,85.80
2019-03-17T01:20:37.768Z,85.80
2019-03-17T01:21:13.319Z,86.00
2019-03-17T01:21:48.855Z,86.00
2019-03-17T01:22:24.674Z,85.90
2019-03-17T01:23:00.238Z,85.90
2019-03-17T01:23:35.866Z,86.10
2019-03-17T01:24:11.483Z,85.90
2019-03-17T01:24:47.318Z,86.00
2019-03-17T01:25:22.874Z,85.90
2019-03-17T01:25:58.662Z,86.10
2019-03-17T01:26:35.279Z,85.90
2019-03-17T01:27:11.203Z,85.80
2019-03-17T01:27:46.757Z,85.80
2019-03-17T01:28:22.305Z,85.90
2019-03-17T01:28:57.843Z,85.80
2019-03-17T01:29:33.372Z,85.80
2019-03-17T01:30:09.362Z,85.80
2019-03-17T01:30:45.266Z,86.00
2019-03-17T01:31:21.470Z,86.10
2019-03-17T01:31:57.043Z,86.10
2019-03-17T01:32:32.594Z,86.00
2019-03-17T01:33:08.145Z,86.30
2019-03-17T01:33:43.743Z,86.30
2019-03-17T01:34:19.273Z,86.40
2019-03-17T01:34:54.810Z,86.50
2019-03-17T01:35:32.505Z,86.70
2019-03-17T01:36:07.613Z,86.90
2019-03-17T01:36:43.164Z,86.60
2019-03-17T01:37:19.674Z,86.50
2019-03-17T01:37:55.242Z,86.80
2019-03-17T01:38:30.766Z,86.40
2019-03-17T01:39:07.542Z,86.30
2019-03-17T01:39:43.104Z,86.40
2019-03-17T01:40:18.779Z,86.30
2019-03-17T01:40:54.323Z,86.30
2019-03-17T01:41:30.234Z,86.20
2019-03-17T01:42:05.775Z,86.10
2019-03-17T01:42:41.311Z,86.30
2019-03-17T01:43:16.868Z,86.20
2019-03-17T01:43:52.407Z,86.30
2019-03-17T01:44:27.962Z,86.30
2019-03-17T01:45:03.532Z,86.10
2019-03-17T01:45:39.121Z,86.20
2019-03-17T01:46:14.654Z,86.30
2019-03-17T01:46:50.214Z,86.20
2019-03-17T01:47:27.779Z,86.30
2019-03-17T01:48:03.514Z,86.40
2019-03-17T01:48:39.053Z,86.20
2019-03-17T01:49:14.611Z,86.20
2019-03-17T01:49:50.467Z,86.50
2019-03-17T01:50:26.010Z,86.50
2019-03-17T01:51:01.560Z,86.60
2019-03-17T01:51:37.104Z,86.50
2019-03-17T01:52:12.636Z,86.60
2019-03-17T01:52:48.170Z,87.60
2019-03-17T01:53:24.771Z,86.50
2019-03-17T01:54:00.318Z,86.20
2019-03-17T01:54:36.776Z,86.20
2019-03-17T01:55:12.326Z,86.30
2019-03-17T01:55:47.870Z,86.30
2019-03-17T01:56:23.603Z,86.30
2019-03-17T01:56:59.146Z,86.30
2019-03-17T01:57:34.701Z,86.50
2019-03-17T01:58:10.247Z,86.20
2019-03-17T01:58:45.898Z,86.00
2019-03-17T01:59:21.469Z,86.10
2019-03-17T01:59:57.259Z,85.90
2019-03-17T02:00:33.139Z,86.00
2019-03-17T02:01:11.731Z,85.90
2019-03-17T02:01:46.242Z,86.00
2019-03-17T02:02:21.767Z,86.00
2019-03-17T02:02:57.352Z,86.00
2019-03-17T02:03:33.275Z,86.70
2019-03-17T02:04:08.830Z,85.90
2019-03-17T02:04:44.724Z,85.80
2019-03-17T02:05:22.303Z,85.80
2019-03-17T02:05:57.503Z,85.90
2019-03-17T02:06:33.368Z,85.90
2019-03-17T02:07:09.232Z,85.80
2019-03-17T02:07:45.075Z,86.10
2019-03-17T02:08:20.712Z,86.30
2019-03-17T02:08:56.267Z,85.90
2019-03-17T02:09:33.206Z,85.70
2019-03-17T02:10:08.832Z,85.60
2019-03-17T02:10:44.391Z,85.70
2019-03-17T02:11:19.946Z,85.80
2019-03-17T02:11:55.485Z,85.90
2019-03-17T02:12:31.027Z,85.90
2019-03-17T02:13:06.662Z,86.10
2019-03-17T02:13:42.496Z,86.10
2019-03-17T02:14:18.529Z,86.10
2019-03-17T02:14:54.055Z,86.10
2019-03-17T02:15:29.594Z,86.00
2019-03-17T02:16:05.125Z,86.00
2019-03-17T02:16:40.698Z,86.00
2019-03-17T02:17:16.263Z,86.10
2019-03-17T02:17:51.803Z,86.10
2019-03-17T02:18:27.371Z,86.00
2019-03-17T02:19:02.910Z,86.00
2019-03-17T02:19:38.519Z,86.00
2019-03-17T02:20:14.442Z,86.20
2019-03-17T02:20:49.998Z,86.20
2019-03-17T02:21:25.559Z,86.50
2019-03-17T02:22:01.465Z,86.30
2019-03-17T02:22:36.981Z,86.10
2019-03-17T02:23:12.526Z,86.00
2019-03-17T02:23:48.079Z,86.00
2019-03-17T02:24:23.650Z,85.80
2019-03-17T02:24:59.299Z,85.80
2019-03-17T02:25:34.858Z,85.70
2019-03-17T02:26:10.680Z,85.60
2019-03-17T02:26:46.522Z,85.60
2019-03-17T02:27:22.078Z,85.70
2019-03-17T02:27:58.100Z,86.00
2019-03-17T02:28:33.668Z,86.10
2019-03-17T02:29:09.275Z,86.10
2019-03-17T02:29:44.827Z,86.00
2019-03-17T02:30:20.380Z,85.90
2019-03-17T02:30:56.107Z,85.90
2019-03-17T02:31:31.644Z,85.90
2019-03-17T02:32:07.295Z,85.90
2019-03-17T02:32:42.851Z,86.00
2019-03-17T02:33:18.415Z,85.80
2019-03-17T02:33:53.974Z,85.80
2019-03-17T02:34:29.520Z,85.90
2019-03-17T02:35:05.582Z,85.90
2019-03-17T02:35:41.145Z,85.90
2019-03-17T02:36:16.696Z,85.90
2019-03-17T02:36:52.237Z,85.80
2019-03-17T02:37:27.831Z,86.00
2019-03-17T02:38:03.384Z,86.20
2019-03-17T02:38:38.939Z,86.10
2019-03-17T02:39:14.475Z,85.60
2019-03-17T02:39:50.025Z,86.20
2019-03-17T02:40:25.548Z,85.90
2019-03-17T02:41:01.151Z,85.90
2019-03-17T02:41:36.697Z,85.80
2019-03-17T02:42:12.232Z,85.80
2019-03-17T02:42:47.802Z,86.00
2019-03-17T02:43:23.344Z,86.00
2019-03-17T02:43:58.884Z,86.00
2019-03-17T02:44:34.438Z,85.70
2019-03-17T02:45:10.111Z,85.60
2019-03-17T02:45:45.725Z,85.50
2019-03-17T02:46:21.260Z,85.50
2019-03-17T02:46:56.982Z,85.00
2019-03-17T02:47:32.555Z,85.00
2019-03-17T02:48:08.076Z,85.20
2019-03-17T02:48:43.615Z,85.20
2019-03-17T02:49:19.166Z,85.10
2019-03-17T02:49:54.704Z,85.00
2019-03-17T02:50:30.618Z,85.00
2019-03-17T02:51:06.407Z,85.10
2019-03-17T02:51:41.949Z,85.30
2019-03-17T02:52:17.577Z,85.20
2019-03-17T02:52:53.116Z,85.20
2019-03-17T02:53:28.731Z,85.30
2019-03-17T02:54:04.519Z,85.20
2019-03-17T02:54:40.347Z,85.20
2019-03-17T02:55:15.891Z,85.10
2019-03-17T02:55:51.683Z,85.10
2019-03-17T02:56:27.228Z,85.00
2019-03-17T02:57:03.288Z,85.20
2019-03-17T02:57:39.914Z,85.20
2019-03-17T02:58:15.715Z,85.30
2019-03-17T02:58:51.256Z,85.50
2019-03-17T02:59:26.791Z,85.50
2019-03-17T03:00:02.654Z,85.50
2019-03-17T03:00:38.258Z,85.50
2019-03-17T03:01:13.803Z,85.70
2019-03-17T03:01:49.424Z,85.50
2019-03-17T03:02:25.211Z,85.70
2019-03-17T03:03:00.759Z,85.70
2019-03-17T03:03:36.650Z,85.50
2019-03-17T03:04:12.325Z,85.50
2019-03-17T03:04:47.958Z,85.50
2019-03-17T03:05:23.516Z,85.60
2019-03-17T03:05:59.054Z,85.60
2019-03-17T03:06:34.594Z,85.40
2019-03-17T03:07:10.138Z,85.30
2019-03-17T03:07:46.850Z,85.10
2019-03-17T03:08:22.403Z,84.70
2019-03-17T03:08:58.002Z,84.70
2019-03-17T03:09:33.871Z,84.80
2019-03-17T03:10:09.962Z,84.70
2019-03-17T03:10:45.483Z,84.70
2019-03-17T03:11:21.607Z,84.60
2019-03-17T03:11:57.140Z,84.50
2019-03-17T03:12:33.038Z,84.50
2019-03-17T03:13:08.697Z,84.40
2019-03-17T03:13:44.230Z,84.40
2019-03-17T03:14:19.781Z,84.40
2019-03-17T03:14:55.395Z,84.40
2019-03-17T03:15:30.943Z,84.50
2019-03-17T03:16:06.524Z,84.40
2019-03-17T03:16:42.156Z,84.20
2019-03-17T03:17:18.140Z,84.10
2019-03-17T03:17:53.684Z,83.70
2019-03-17T03:18:29.236Z,83.50
2019-03-17T03:19:04.783Z,83.70
2019-03-17T03:19:40.669Z,83.50
2019-03-17T03:20:16.197Z,83.20
2019-03-17T03:20:51.772Z,83.30
2019-03-17T03:21:27.374Z,83.20
2019-03-17T03:22:02.995Z,82.80
2019-03-17T03:22:38.531Z,83.20
2019-03-17T03:23:14.077Z,83.30
2019-03-17T03:23:49.627Z,83.50
2019-03-17T03:24:25.178Z,83.60
2019-03-17T03:25:00.895Z,83.50
2019-03-17T03:25:36.531Z,83.40
2019-03-17T03:26:12.387Z,83.50
2019-03-17T03:26:47.935Z,83.50
2019-03-17T03:27:24.556Z,83.40
2019-03-17T03:28:00.108Z,83.40
2019-03-17T03:28:35.668Z,83.50
2019-03-17T03:29:11.541Z,82.70
2019-03-17T03:29:47.071Z,82.70
2019-03-17T03:30:22.607Z,82.50
2019-03-17T03:30:58.185Z,82.30
2019-03-17T03:31:34.191Z,82.30
2019-03-17T03:32:09.747Z,82.40
2019-03-17T03:32:45.701Z,82.00
2019-03-17T03:33:21.298Z,81.60
2019-03-17T03:33:56.907Z,81.60
2019-03-17T03:34:32.473Z,81.80
2019-03-17T03:35:08.159Z,81.90
2019-03-17T03:35:43.826Z,81.90
2019-03-17T03:36:19.611Z,81.90
2019-03-17T03:36:55.152Z,82.30
2019-03-17T03:37:30.679Z,82.30
2019-03-17T03:38:06.303Z,82.40
2019-03-17T03:38:42.893Z,82.50
2019-03-17T03:39:18.801Z,82.70
2019-03-17T03:39:54.411Z,82.60
2019-03-17T03:40:29.965Z,82.60
2019-03-17T03:41:06.187Z,83.30
2019-03-17T03:41:41.724Z,83.80
2019-03-17T03:42:17.275Z,84.30
2019-03-17T03:42:53.174Z,85.00
2019-03-17T03:43:28.783Z,85.10
2019-03-17T03:44:04.379Z,85.50
2019-03-17T03:44:40.003Z,86.20
2019-03-17T03:45:15.645Z,86.30
2019-03-17T03:45:51.224Z,87.00
2019-03-17T03:46:26.799Z,87.70
2019-03-17T03:47:03.330Z,88.30
2019-03-17T03:47:39.170Z,88.80
2019-03-17T03:48:14.784Z,89.60
2019-03-17T03:48:50.350Z,90.10
2019-03-17T03:49:25.891Z,90.80
2019-03-17T03:50:01.423Z,90.50
2019-03-17T03:50:36.974Z,90.60
2019-03-17T03:51:12.517Z,90.70
2019-03-17T03:51:48.055Z,90.80
2019-03-17T03:52:23.595Z,91.00
2019-03-17T03:52:59.173Z,91.20
2019-03-17T03:53:34.695Z,91.10
2019-03-17T03:54:10.247Z,91.30
2019-03-17T03:54:46.127Z,91.50
2019-03-17T03:55:21.876Z,91.60
2019-03-17T03:55:57.411Z,91.70
2019-03-17T03:56:33.967Z,91.80
2019-03-17T03:57:10.332Z,91.90
2019-03-17T03:57:46.139Z,92.00
2019-03-17T03:58:21.695Z,92.10
2019-03-17T03:58:57.236Z,92.20
2019-03-17T03:59:32.768Z,92.20
2019-03-17T04:00:09.106Z,92.30
2019-03-17T04:00:44.931Z,92.50
2019-03-17T04:01:20.474Z,92.60
2019-03-17T04:01:56.028Z,92.70
2019-03-17T04:02:31.828Z,92.70
2019-03-17T04:03:07.377Z,92.60
2019-03-17T04:03:47.091Z,92.60
2019-03-17T04:04:22.630Z,92.60
2019-03-17T04:04:58.183Z,92.60
2019-03-17T04:05:38.821Z,92.60
2019-03-17T04:06:25.681Z,92.70
2019-03-17T04:06:51.707Z,92.70
2019-03-17T04:07:27.248Z,92.70
2019-03-17T04:08:02.837Z,92.80
2019-03-17T04:08:38.754Z,92.90
2019-03-17T04:09:14.313Z,93.40
2019-03-17T04:09:49.893Z,93.40
2019-03-17T04:10:25.409Z,93.40
2019-03-17T04:11:00.950Z,93.50
2019-03-17T04:11:36.483Z,93.60
2019-03-17T04:12:12.109Z,93.60
2019-03-17T04:12:47.779Z,93.50
2019-03-17T04:13:23.603Z,93.30
2019-03-17T04:13:59.152Z,93.30
2019-03-17T04:14:34.672Z,93.30
2019-03-17T04:15:10.325Z,93.30
2019-03-17T04:15:45.923Z,93.30
2019-03-17T04:16:22.739Z,93.20
2019-03-17T04:16:58.523Z,93.30
2019-03-17T04:17:34.055Z,93.20
2019-03-17T04:18:09.858Z,93.20
2019-03-17T04:18:45.460Z,93.20
2019-03-17T04:19:22.077Z,93.60
2019-03-17T04:19:57.697Z,93.30
2019-03-17T04:20:33.245Z,93.30
2019-03-17T04:21:08.792Z,93.40
2019-03-17T04:21:44.324Z,93.80
2019-03-17T04:22:19.935Z,93.30
2019-03-17T04:22:55.458Z,93.20
2019-03-17T04:23:31.083Z,93.30
2019-03-17T04:24:06.697Z,93.30
2019-03-17T04:24:42.283Z,93.20
2019-03-17T04:25:18.066Z,93.10
2019-03-17T04:25:53.612Z,93.20
2019-03-17T04:26:29.382Z,93.20
2019-03-17T04:27:04.907Z,93.10
2019-03-17T04:27:40.435Z,93.00
2019-03-17T04:28:15.988Z,93.00
2019-03-17T04:28:51.519Z,93.10
2019-03-17T04:29:27.062Z,93.10
2019-03-17T04:30:02.588Z,92.90
2019-03-17T04:30:38.197Z,92.90
2019-03-17T04:31:14.774Z,92.80
2019-03-17T04:31:50.542Z,92.80
2019-03-17T04:32:26.063Z,92.70
2019-03-17T04:33:01.679Z,92.70
2019-03-17T04:33:37.210Z,92.60
2019-03-17T04:34:12.759Z,92.60
2019-03-17T04:34:48.323Z,92.50
2019-03-17T04:35:24.103Z,92.50
2019-03-17T04:35:59.654Z,92.70
2019-03-17T04:36:40.536Z,92.70
2019-03-17T04:37:12.407Z,92.60
2019-03-17T04:37:47.961Z,92.40
2019-03-17T04:38:23.491Z,92.40
2019-03-17T04:38:59.044Z,91.70
2019-03-17T04:39:34.663Z,91.70
2019-03-17T04:40:10.214Z,91.70
2019-03-17T04:40:45.851Z,91.60
2019-03-17T04:41:21.397Z,91.40
2019-03-17T04:41:56.948Z,91.00
2019-03-17T04:42:32.567Z,90.90
2019-03-17T04:43:08.384Z,91.00
2019-03-17T04:43:44.244Z,90.90
2019-03-17T04:44:21.125Z,90.80
2019-03-17T04:44:57.138Z,91.10
2019-03-17T04:45:32.979Z,90.60
2019-03-17T04:46:08.875Z,90.60
2019-03-17T04:46:44.444Z,90.70
2019-03-17T04:47:19.984Z,90.80
2019-03-17T04:47:55.815Z,91.00
2019-03-17T04:48:31.484Z,91.00
2019-03-17T04:49:07.039Z,91.10
2019-03-17T04:49:42.653Z,91.10
2019-03-17T04:50:18.457Z,91.30
2019-03-17T04:50:55.147Z,91.30
2019-03-17T04:51:30.963Z,91.30
2019-03-17T04:52:06.783Z,91.50
2019-03-17T04:52:42.342Z,91.90
2019-03-17T04:53:17.878Z,92.30
2019-03-17T04:53:53.412Z,92.60
2019-03-17T04:54:28.991Z,93.30
2019-03-17T04:55:04.585Z,93.60
2019-03-17T04:55:40.121Z,93.90
2019-03-17T04:56:15.670Z,94.30
2019-03-17T04:56:51.276Z,94.60
2019-03-17T04:57:26.809Z,94.90
2019-03-17T04:58:02.342Z,94.90
2019-03-17T04:58:37.902Z,95.10
2019-03-17T04:59:13.542Z,95.40
2019-03-17T04:59:49.121Z,95.50
2019-03-17T05:00:24.682Z,95.60
2019-03-17T05:01:00.231Z,95.80
2019-03-17T05:01:35.779Z,96.40
2019-03-17T05:02:13.512Z,96.70
2019-03-17T05:02:48.538Z,96.70
2019-03-17T05:03:24.075Z,97.00
2019-03-17T05:03:59.604Z,97.20
2019-03-17T05:04:35.183Z,97.30
2019-03-17T05:05:10.983Z,98.00
2019-03-17T05:05:47.504Z,98.30
2019-03-17T05:06:23.092Z,98.80
2019-03-17T05:06:58.631Z,99.40
2019-03-17T05:07:34.163Z,99.30
2019-03-17T05:08:09.696Z,99.40
2019-03-17T05:08:45.272Z,99.90
2019-03-17T05:09:20.831Z,99.90
2019-03-17T05:09:56.354Z,99.90
2019-03-17T05:10:31.900Z,99.90
2019-03-17T05:11:07.443Z,99.90
2019-03-17T05:11:42.983Z,99.90
2019-03-17T05:12:18.541Z,99.90
2019-03-17T05:12:54.106Z,99.90
2019-03-17T05:13:29.670Z,99.90
2019-03-17T05:14:05.244Z,99.90
2019-03-17T05:14:40.799Z,99.90
2019-03-17T05:15:16.700Z,99.90
2019-03-17T05:15:52.247Z,99.90
2019-03-17T05:16:27.779Z,99.90
2019-03-17T05:17:03.331Z,99.90
2019-03-17T05:17:38.882Z,99.90
2019-03-17T05:18:14.427Z,99.90
2019-03-17T05:18:49.967Z,99.90
2019-03-17T05:19:25.509Z,99.90
2019-03-17T05:20:01.384Z,99.90
2019-03-17T05:20:36.923Z,99.90
2019-03-17T05:21:12.470Z,99.90
2019-03-17T05:21:48.021Z,99.90
2019-03-17T05:22:23.583Z,99.90
2019-03-17T05:22:59.131Z,99.90
2019-03-17T05:23:34.913Z,99.90
2019-03-17T05:24:10.532Z,99.90
2019-03-17T05:24:46.158Z,99.90
2019-03-17T05:25:21.727Z,99.90
2019-03-17T05:25:57.263Z,99.90
2019-03-17T05:26:33.169Z,99.90
2019-03-17T05:27:08.798Z,99.90
2019-03-17T05:27:44.343Z,99.90
2019-03-17T05:28:19.893Z,99.90
2019-03-17T05:28:55.519Z,99.90
2019-03-17T05:29:31.060Z,99.90
2019-03-17T05:30:06.858Z,99.90
2019-03-17T05:30:42.427Z,99.90
2019-03-17T05:31:17.963Z,99.90
2019-03-17T05:31:53.502Z,99.90
2019-03-17T05:32:29.046Z,99.90
2019-03-17T05:33:04.938Z,99.90
2019-03-17T05:33:40.782Z,99.90
2019-03-17T05:34:16.346Z,99.90
2019-03-17T05:34:51.979Z,99.90
2019-03-17T05:35:27.529Z,99.90
2019-03-17T05:36:03.071Z,99.90
2019-03-17T05:36:38.602Z,99.90
2019-03-17T05:37:14.139Z,99.90
2019-03-17T05:37:50.022Z,99.90
2019-03-17T05:38:25.584Z,99.90
2019-03-17T05:39:01.299Z,99.90
2019-03-17T05:39:37.581Z,99.90
2019-03-17T05:40:14.079Z,99.90
2019-03-17T05:40:49.670Z,99.90
2019-03-17T05:41:25.208Z,99.90
2019-03-17T05:42:00.751Z,99.90
2019-03-17T05:42:36.311Z,99.90
2019-03-17T05:43:11.891Z,99.90
2019-03-17T05:43:47.442Z,99.90
2019-03-17T05:44:22.976Z,99.90
2019-03-17T05:44:58.512Z,99.90
2019-03-17T05:45:34.411Z,99.90
2019-03-17T05:46:10.691Z,99.90
2019-03-17T05:46:46.384Z,99.90
2019-03-17T05:47:22.046Z,99.90
2019-03-17T05:47:57.595Z,99.90
2019-03-17T05:48:33.150Z,99.90
2019-03-17T05:49:09.079Z,99.90
2019-03-17T05:49:44.899Z,99.90
2019-03-17T05:50:20.728Z,99.90
2019-03-17T05:50:56.390Z,99.90
2019-03-17T05:51:32.213Z,99.90
2019-03-17T05:52:07.757Z,99.90
2019-03-17T05:52:43.404Z,99.90
2019-03-17T05:53:19.301Z,99.90
2019-03-17T05:53:54.856Z,99.90
2019-03-17T05:54:30.403Z,99.90
2019-03-17T05:55:06.054Z,99.90
2019-03-17T05:55:41.607Z,99.90
2019-03-17T05:56:17.151Z,99.90
2019-03-17T05:56:52.704Z,99.90
2019-03-17T05:57:28.288Z,99.90
2019-03-17T05:58:03.823Z,99.90
2019-03-17T05:58:39.368Z,99.90
2019-03-17T05:59:14.990Z,99.90
2019-03-17T05:59:50.570Z,99.90
2019-03-17T06:00:26.127Z,99.90
2019-03-17T06:01:01.691Z,99.90
2019-03-17T06:01:37.236Z,99.90
2019-03-17T06:02:12.861Z,99.90
2019-03-17T06:02:48.772Z,99.90
2019-03-17T06:03:24.310Z,99.90
2019-03-17T06:03:59.870Z,99.90
2019-03-17T06:04:35.402Z,99.90
2019-03-17T06:05:10.962Z,99.90
2019-03-17T06:05:46.486Z,99.90
2019-03-17T06:06:22.036Z,99.90
2019-03-17T06:06:57.590Z,99.90
2019-03-17T06:07:33.130Z,99.90
2019-03-17T06:08:08.674Z,99.90
2019-03-17T06:08:44.516Z,99.90
2019-03-17T06:09:20.093Z,99.90
2019-03-17T06:09:55.632Z,99.90
2019-03-17T06:10:31.175Z,99.90
2019-03-17T06:11:06.706Z,99.90
2019-03-17T06:11:42.259Z,99.90
2019-03-17T06:12:17.795Z,99.90
2019-03-17T06:12:53.341Z,99.90
2019-03-17T06:13:28.878Z,99.90
2019-03-17T06:14:04.431Z,99.90
2019-03-17T06:14:39.967Z,99.90
2019-03-17T06:15:15.526Z,99.90
2019-03-17T06:15:51.067Z,99.90
2019-03-17T06:16:26.621Z,99.90
2019-03-17T06:17:02.179Z,99.90
2019-03-17T06:17:37.753Z,99.90
2019-03-17T06:18:13.300Z,99.90
2019-03-17T06:18:48.830Z,99.90
2019-03-17T06:19:24.375Z,99.90
2019-03-17T06:20:00.365Z,99.90
2019-03-17T06:20:35.995Z,99.90
2019-03-17T06:21:11.539Z,99.90
2019-03-17T06:21:47.080Z,99.90
2019-03-17T06:22:22.635Z,99.90
2019-03-17T06:22:58.267Z,99.90
2019-03-17T06:23:33.899Z,99.90
2019-03-17T06:24:09.435Z,99.90
2019-03-17T06:24:45.019Z,99.90
2019-03-17T06:25:20.560Z,99.90
2019-03-17T06:25:56.095Z,99.90
2019-03-17T06:26:31.636Z,99.90
2019-03-17T06:27:07.206Z,99.90
2019-03-17T06:27:42.750Z,99.90
2019-03-17T06:28:21.451Z,99.90
2019-03-17T06:28:55.910Z,99.90
2019-03-17T06:29:31.713Z,99.90
2019-03-17T06:30:08.540Z,99.90
2019-03-17T06:30:44.074Z,99.90
2019-03-17T06:31:19.611Z,99.90
2019-03-17T06:31:55.134Z,99.90
2019-03-17T06:32:30.675Z,99.90
2019-03-17T06:33:06.215Z,99.90
2019-03-17T06:33:41.840Z,99.90
2019-03-17T06:34:17.411Z,99.90
2019-03-17T06:34:53.395Z,99.90
2019-03-17T06:35:28.950Z,99.90
2019-03-17T06:36:04.494Z,99.90
2019-03-17T06:36:40.026Z,99.90
2019-03-17T06:37:15.672Z,99.90
2019-03-17T06:37:51.271Z,99.90
2019-03-17T06:38:26.833Z,99.90
2019-03-17T06:39:02.387Z,99.90
2019-03-17T06:39:37.989Z,99.90
2019-03-17T06:40:13.669Z,99.90
2019-03-17T06:40:49.276Z,99.90
2019-03-17T06:41:24.823Z,99.90
2019-03-17T06:42:00.368Z,99.90
2019-03-17T06:42:35.917Z,99.90
2019-03-17T06:43:12.528Z,99.90
2019-03-17T06:43:48.070Z,99.90
2019-03-17T06:44:23.626Z,99.90
2019-03-17T06:44:59.182Z,99.90
2019-03-17T06:45:34.758Z,99.90
2019-03-17T06:46:10.338Z,99.90
2019-03-17T06:46:45.896Z,99.90
2019-03-17T06:47:21.481Z,99.90
2019-03-17T06:47:56.999Z,99.90
2019-03-17T06:48:32.628Z,99.90
2019-03-17T06:49:08.179Z,99.90
2019-03-17T06:49:43.981Z,99.90
2019-03-17T06:50:19.528Z,99.90
2019-03-17T06:50:55.289Z,99.90
2019-03-17T06:51:31.115Z,99.90
2019-03-17T06:52:06.663Z,99.90
2019-03-17T06:52:42.217Z,99.90
2019-03-17T06:53:17.829Z,99.90
2019-03-17T06:53:56.618Z,99.90
2019-03-17T06:54:30.624Z,99.90
2019-03-17T06:55:07.122Z,99.90
2019-03-17T06:55:42.690Z,99.90
2019-03-17T06:56:18.227Z,99.90
2019-03-17T06:56:54.505Z,99.90
2019-03-17T06:57:30.152Z,99.90
2019-03-17T06:58:05.768Z,99.90
2019-03-17T06:58:41.334Z,99.90
2019-03-17T06:59:17.779Z,99.90
2019-03-17T06:59:53.410Z,99.90
2019-03-17T07:00:28.931Z,99.90
2019-03-17T07:01:04.502Z,99.90
2019-03-17T07:01:40.056Z,99.90
2019-03-17T07:02:15.587Z,99.90
2019-03-17T07:02:51.185Z,99.90
2019-03-17T07:03:26.831Z,99.90
2019-03-17T07:04:02.378Z,99.90
2019-03-17T07:04:38.171Z,99.90
2019-03-17T07:05:13.989Z,99.90
2019-03-17T07:05:49.535Z,99.90
2019-03-17T07:06:25.098Z,99.90
2019-03-17T07:07:00.649Z,99.90
2019-03-17T07:07:44.057Z,99.90
2019-03-17T07:08:13.582Z,99.90
2019-03-17T07:08:49.451Z,99.90
2019-03-17T07:09:25.006Z,99.90
2019-03-17T07:10:00.654Z,99.90
2019-03-17T07:10:36.206Z,99.90
2019-03-17T07:11:11.731Z,99.90
2019-03-17T07:11:47.293Z,99.90
2019-03-17T07:12:22.828Z,99.90
2019-03-17T07:12:58.395Z,99.90
2019-03-17T07:13:34.057Z,99.90
2019-03-17T07:14:09.611Z,99.90
2019-03-17T07:14:45.182Z,99.90
2019-03-17T07:15:20.746Z,99.90
2019-03-17T07:15:56.286Z,99.90
2019-03-17T07:16:32.531Z,99.90
2019-03-17T07:17:08.114Z,99.90
2019-03-17T07:17:44.009Z,99.90
2019-03-17T07:18:21.698Z,99.90
2019-03-17T07:18:57.236Z,99.90
2019-03-17T07:19:32.771Z,99.90
2019-03-17T07:20:08.846Z,99.90
2019-03-17T07:20:44.654Z,99.90
2019-03-17T07:21:20.514Z,99.90
2019-03-17T07:21:56.461Z,99.90
2019-03-17T07:22:32.058Z,99.90
2019-03-17T07:23:07.605Z,99.90
2019-03-17T07:23:43.167Z,99.90
2019-03-17T07:24:18.720Z,99.90
2019-03-17T07:24:54.514Z,99.90
2019-03-17T07:25:30.082Z,99.90
2019-03-17T07:26:06.299Z,99.90
2019-03-17T07:26:41.818Z,99.90
2019-03-17T07:27:17.399Z,99.90
2019-03-17T07:27:53.081Z,99.90
2019-03-17T07:28:28.634Z,99.90
2019-03-17T07:29:04.157Z,99.90
2019-03-17T07:29:39.958Z,99.90
2019-03-17T07:30:15.529Z,99.90
2019-03-17T07:30:51.069Z,99.90
2019-03-17T07:31:26.927Z,99.90
2019-03-17T07:32:02.715Z,99.90
2019-03-17T07:32:38.245Z,99.90
2019-03-17T07:33:13.792Z,99.90
2019-03-17T07:33:49.343Z,99.90
2019-03-17T07:34:24.874Z,99.90
2019-03-17T07:35:00.425Z,99.90
2019-03-17T07:35:36.049Z,99.90
2019-03-17T07:36:11.678Z,99.90
2019-03-17T07:36:47.216Z,99.90
2019-03-17T07:37:22.743Z,99.90
2019-03-17T07:37:58.350Z,99.90
2019-03-17T07:38:33.915Z,99.90
2019-03-17T07:39:12.025Z,99.90
2019-03-17T07:39:47.088Z,99.90
2019-03-17T07:40:22.660Z,99.90